Tropical Cyclones
[Index]
Main Index Home Page Stock Weather Photos Extreme Storms Discussion Storm News and Storm Chasing Reports Tropical Cyclones / Hurricanes / Typhoons Weather Data and Links Wild Fires / Bushfires Weather Observation Techniques Weather Picture Catalogue Tornado Pictures and Reports Stock Video Footage and DVDs for sale
Season 1979-1980 Tropical Cyclone WALLY Track Map
Season 1979-1980 Summaries: [BoM-AU] [JTWC-AU] [JTWC-SIO] [JTWC-SPAC] [JTWC-SH]
<<- Previous TC | JTWC 1979-1980 Season | Next TC ->>

click for intensity scale information  Lat/long Grid: Show Hide

 Date Labels: Show Hide

Joint Typhoon Warning Centre Cyclone Data

Name: WALLY

01 Apr 1980 00:00 UTC to 08 Apr 1980 00:00 UTC

    date/time    lat    long     hPa   cat  kts
1980-04-01 00   15.2   177.5W                 30          
1980-04-01 06   15.0   178.1W                 30          
1980-04-01 12   14.8   178.7W                 30          
1980-04-01 18   14.5   179.2W                 30          
1980-04-02 00   14.3   179.5W                 30          
1980-04-02 06   14.5   179.7W                 30          
1980-04-02 12   14.8   179.8W                 35          
1980-04-02 18   14.9   179.8                  35          
1980-04-03 00   15.0   179.5            1     40          
1980-04-03 06   15.1   179.4            1     40          
1980-04-03 12   15.1   179.2            1     45          
1980-04-03 18   15.2   179.1            1     45          
1980-04-04 00   15.3   178.9            1     50          
1980-04-04 06   15.7   178.4            1     50          
1980-04-04 12   16.1   177.9            1     50          
1980-04-04 18   16.5   177.8            1     50          
1980-04-05 00   17.0   177.7            1     50          
1980-04-05 06   17.9   177.6            1     50          
1980-04-05 12   19.3   177.5            1     45          
1980-04-05 18   21.0   178.1            1     45          
1980-04-06 00   22.6   179.5            1     40          
1980-04-06 06   24.1   179.1W                 35          
1980-04-06 12   25.6   177.0W                 30          
1980-04-06 18   27.1   173.8W                 30          
1980-04-07 00   28.2   170.6W                 30          
1980-04-07 06   28.6   167.8W                 30          
1980-04-07 12   28.6   165.0W                 30          
1980-04-07 18   28.6   162.0W                 30          
1980-04-08 00   28.5   159.0W                 30          
Winds are 1-min average.

Tropical cyclone tracks developed by Michael Bath using data from the Joint Typhoon Warning Centre Best Tracks and Google Maps.


[Australian Severe Weather index] [Copyright Notice] [Email Contacts] [Search This Site] [Privacy Policy]
Document: tropical_cyclone_wally.htm Updated: 18 September 2016